createdAt,value
2023-10-11T00:00:40.651Z,17.73
2023-10-11T00:03:19.301Z,17.73
2023-10-11T00:05:47.190Z,17.72
2023-10-11T00:08:20.042Z,17.72
2023-10-11T00:10:48.573Z,17.69
2023-10-11T00:13:18.447Z,17.68
2023-10-11T00:15:52.002Z,17.68
2023-10-11T00:18:22.349Z,17.71
2023-10-11T00:20:52.911Z,17.76
2023-10-11T00:23:24.977Z,17.75
2023-10-11T00:26:00.045Z,17.75
2023-10-11T00:28:27.807Z,17.72
2023-10-11T00:31:01.174Z,17.71
2023-10-11T00:33:38.508Z,17.72
2023-10-11T00:36:07.003Z,17.73
2023-10-11T00:38:43.975Z,17.70
2023-10-11T00:41:21.304Z,17.68
2023-10-11T00:43:54.804Z,17.70
2023-10-11T00:46:24.004Z,17.68
2023-10-11T00:48:55.621Z,17.67
2023-10-11T00:51:32.550Z,17.63
2023-10-11T00:54:06.076Z,17.62
2023-10-11T00:56:33.842Z,17.66
2023-10-11T00:59:11.703Z,17.63
2023-10-11T01:01:39.189Z,17.61
2023-10-11T01:04:08.124Z,17.59
2023-10-11T01:06:35.578Z,17.57
2023-10-11T01:09:14.704Z,17.56
2023-10-11T01:11:41.401Z,17.54
2023-10-11T01:14:09.775Z,17.47
2023-10-11T01:16:36.431Z,17.47
2023-10-11T01:19:09.047Z,17.45
2023-10-11T01:21:35.555Z,17.49
2023-10-11T01:24:02.136Z,17.55
2023-10-11T01:26:28.891Z,17.64
2023-10-11T01:28:57.874Z,17.72
2023-10-11T01:31:24.953Z,17.74
2023-10-11T01:33:53.546Z,17.73
2023-10-11T01:36:23.143Z,17.68
2023-10-11T01:38:50.612Z,17.71
2023-10-11T01:41:23.983Z,17.71
2023-10-11T01:43:51.699Z,17.67
2023-10-11T01:46:19.848Z,17.62
2023-10-11T01:48:46.603Z,17.57
2023-10-11T01:51:27.320Z,17.54
2023-10-11T01:54:01.196Z,17.53
2023-10-11T01:56:28.722Z,17.51
2023-10-11T01:59:01.777Z,17.57
2023-10-11T02:01:31.644Z,17.57
2023-10-11T02:04:01.021Z,17.51
2023-10-11T02:06:33.726Z,17.47
2023-10-11T02:09:00.918Z,17.42
2023-10-11T02:11:30.780Z,17.31
2023-10-11T02:13:58.782Z,17.26
2023-10-11T02:16:26.314Z,17.18
2023-10-11T02:18:56.798Z,17.13
2023-10-11T02:21:24.798Z,17.10
2023-10-11T02:23:51.476Z,17.04
2023-10-11T02:26:18.379Z,17.03
2023-10-11T02:28:46.199Z,17.01
2023-10-11T02:31:14.306Z,17.03
2023-10-11T02:33:41.478Z,17.05
2023-10-11T02:36:18.134Z,17.06
2023-10-11T02:38:48.913Z,17.01
2023-10-11T02:41:27.669Z,16.94
2023-10-11T02:43:54.533Z,16.91
2023-10-11T02:46:24.637Z,16.87
2023-10-11T02:49:05.631Z,16.85
2023-10-11T02:51:36.341Z,16.83
2023-10-11T02:54:06.482Z,16.79
2023-10-11T02:56:47.722Z,16.78
2023-10-11T02:59:20.630Z,16.80
2023-10-11T03:02:00.315Z,16.79
2023-10-11T03:04:42.860Z,16.80
2023-10-11T03:07:24.905Z,16.76
2023-10-11T03:09:55.546Z,16.77
2023-10-11T03:12:33.435Z,16.77
2023-10-11T03:15:07.422Z,16.73
2023-10-11T03:17:41.796Z,16.79
2023-10-11T03:20:26.106Z,16.87
2023-10-11T03:22:53.383Z,16.88
2023-10-11T03:25:20.658Z,16.85
2023-10-11T03:27:50.358Z,16.77
2023-10-11T03:30:18.053Z,16.73
2023-10-11T03:32:45.893Z,16.70
2023-10-11T03:35:19.803Z,16.73
2023-10-11T03:38:07.625Z,16.91
2023-10-11T03:40:51.217Z,16.90
2023-10-11T03:43:18.632Z,16.82
2023-10-11T03:45:51.658Z,16.77
2023-10-11T03:48:22.070Z,16.73
2023-10-11T03:50:49.345Z,16.70
2023-10-11T03:53:16.685Z,16.68
2023-10-11T03:55:50.222Z,16.73
2023-10-11T03:58:34.041Z,16.71
2023-10-11T04:01:07.384Z,16.74
2023-10-11T04:03:35.336Z,16.73
2023-10-11T04:06:02.595Z,16.66
2023-10-11T04:08:29.378Z,16.64
2023-10-11T04:10:57.817Z,16.65
2023-10-11T04:13:27.105Z,16.63
2023-10-11T04:15:55.960Z,16.60
2023-10-11T04:18:32.977Z,16.63
2023-10-11T04:21:16.040Z,16.63
2023-10-11T04:23:46.730Z,16.59
2023-10-11T04:26:31.891Z,16.56
2023-10-11T04:29:07.431Z,16.51
2023-10-11T04:31:55.088Z,16.47
2023-10-11T04:34:24.564Z,16.46
2023-10-11T04:36:56.367Z,16.57
2023-10-11T04:39:29.905Z,16.62
2023-10-11T04:41:58.314Z,16.70
2023-10-11T04:44:25.244Z,16.84
2023-10-11T04:47:01.971Z,16.92
2023-10-11T04:49:31.728Z,16.88
2023-10-11T04:51:58.795Z,16.87
2023-10-11T04:54:37.872Z,16.89
2023-10-11T04:57:18.493Z,16.83
2023-10-11T04:59:47.969Z,16.77
2023-10-11T05:02:25.239Z,16.73
2023-10-11T05:04:53.118Z,16.63
2023-10-11T05:07:23.118Z,16.60
2023-10-11T05:10:22.105Z,16.66
2023-10-11T05:12:58.736Z,16.61
2023-10-11T05:15:31.096Z,16.63
2023-10-11T05:18:00.916Z,16.71
2023-10-11T05:20:42.672Z,16.86
2023-10-11T05:23:12.935Z,16.87
2023-10-11T05:25:54.620Z,16.87
2023-10-11T05:28:23.594Z,16.82
2023-10-11T05:31:07.840Z,16.77
2023-10-11T05:33:58.936Z,16.71
2023-10-11T05:36:41.330Z,16.70
2023-10-11T05:39:26.676Z,16.72
2023-10-11T05:42:11.995Z,16.67
2023-10-11T05:44:57.268Z,16.65
2023-10-11T05:47:42.629Z,16.73
2023-10-11T05:50:28.124Z,16.92
2023-10-11T05:52:56.954Z,16.92
2023-10-11T05:55:24.104Z,16.92
2023-10-11T05:57:51.395Z,16.87
2023-10-11T06:00:27.509Z,16.80
2023-10-11T06:02:54.404Z,16.76
2023-10-11T06:05:23.691Z,16.80
2023-10-11T06:08:01.914Z,16.81
2023-10-11T06:10:33.391Z,16.78
2023-10-11T06:13:00.093Z,16.79
2023-10-11T06:15:26.649Z,16.78
2023-10-11T06:17:56.148Z,16.77
2023-10-11T06:20:28.717Z,16.77
2023-10-11T06:22:55.800Z,16.76
2023-10-11T06:25:45.188Z,16.77
2023-10-11T06:28:15.350Z,16.84
2023-10-11T06:30:44.045Z,16.86
2023-10-11T06:33:13.920Z,16.90
2023-10-11T06:35:50.499Z,16.92
2023-10-11T06:38:17.455Z,16.93
2023-10-11T06:40:55.683Z,16.97
2023-10-11T06:43:22.573Z,17.02
2023-10-11T06:45:50.706Z,16.99
2023-10-11T06:48:17.706Z,16.93
2023-10-11T06:50:44.372Z,16.87
2023-10-11T06:53:11.680Z,16.79
2023-10-11T06:55:49.117Z,16.72
2023-10-11T06:58:20.611Z,16.70
2023-10-11T07:00:47.641Z,16.67
2023-10-11T07:03:21.866Z,16.65
2023-10-11T07:05:50.390Z,16.62
2023-10-11T07:08:21.448Z,16.61
2023-10-11T07:11:07.130Z,16.57
2023-10-11T07:13:53.106Z,16.53
2023-10-11T07:16:22.877Z,16.50
2023-10-11T07:18:51.888Z,16.47
2023-10-11T07:21:20.600Z,16.48
2023-10-11T07:23:56.844Z,16.47
2023-10-11T07:26:26.347Z,16.58
2023-10-11T07:28:54.140Z,16.63
2023-10-11T07:31:21.929Z,16.75
2023-10-11T07:33:52.078Z,16.82
2023-10-11T07:36:20.260Z,16.85
2023-10-11T07:38:48.139Z,16.88
2023-10-11T07:41:20.651Z,16.90
2023-10-11T07:43:47.468Z,16.90
2023-10-11T07:46:14.702Z,16.92
2023-10-11T07:48:41.880Z,16.93
2023-10-11T07:51:11.323Z,16.94
2023-10-11T07:53:44.855Z,16.98
2023-10-11T07:56:11.716Z,17.03
2023-10-11T07:58:46.285Z,17.10
2023-10-11T08:01:17.929Z,17.18
2023-10-11T08:03:47.383Z,17.27
2023-10-11T08:06:15.285Z,17.32
2023-10-11T08:08:41.772Z,17.40
2023-10-11T08:11:20.193Z,17.43
2023-10-11T08:13:49.150Z,17.54
2023-10-11T08:16:19.284Z,17.61
2023-10-11T08:18:47.691Z,17.64
2023-10-11T08:21:14.425Z,17.67
2023-10-11T08:23:44.710Z,17.74
2023-10-11T08:26:22.238Z,17.75
2023-10-11T08:28:52.943Z,17.80
2023-10-11T08:31:35.672Z,17.84
2023-10-11T08:34:04.710Z,17.85
2023-10-11T08:36:34.701Z,17.83
2023-10-11T08:39:06.582Z,17.84
2023-10-11T08:41:35.095Z,17.83
2023-10-11T08:44:03.073Z,17.85
2023-10-11T08:46:33.146Z,17.88
2023-10-11T08:49:01.800Z,17.93
2023-10-11T08:51:37.863Z,17.93
2023-10-11T08:54:15.484Z,17.91
2023-10-11T08:56:49.776Z,17.90
2023-10-11T08:59:16.980Z,17.91
2023-10-11T09:01:46.270Z,17.96
2023-10-11T09:04:14.406Z,18.08
2023-10-11T09:06:45.891Z,18.13
2023-10-11T09:09:35.162Z,18.26
2023-10-11T09:12:21.926Z,18.41
2023-10-11T09:15:01.770Z,18.55
2023-10-11T09:17:28.811Z,18.65
2023-10-11T09:20:01.077Z,18.78
2023-10-11T09:22:29.298Z,18.93
2023-10-11T09:25:06.954Z,19.09
2023-10-11T09:27:55.494Z,19.26
2023-10-11T09:30:25.136Z,19.45
2023-10-11T09:33:00.652Z,19.67
2023-10-11T09:35:28.720Z,19.83
2023-10-11T09:37:59.853Z,19.94
2023-10-11T09:40:35.626Z,20.07
2023-10-11T09:43:02.727Z,20.16
2023-10-11T09:45:43.782Z,20.23
2023-10-11T09:48:13.493Z,20.29
2023-10-11T09:50:43.779Z,20.36
2023-10-11T09:53:14.417Z,20.47
2023-10-11T09:55:47.139Z,20.58
2023-10-11T09:58:29.896Z,20.64
2023-10-11T10:01:11.569Z,20.73
2023-10-11T10:03:46.508Z,20.86
2023-10-11T10:06:20.255Z,20.96
2023-10-11T10:08:51.490Z,21.05
2023-10-11T10:11:20.699Z,21.11
2023-10-11T10:13:59.912Z,21.16
2023-10-11T10:17:05.316Z,21.23
2023-10-11T10:19:40.892Z,21.27
2023-10-11T10:22:17.949Z,21.30
2023-10-11T10:24:45.994Z,21.31
2023-10-11T10:27:34.451Z,21.31
2023-10-11T10:30:02.467Z,21.31
2023-10-11T10:32:29.102Z,21.30
2023-10-11T10:35:20.740Z,21.24
2023-10-11T10:37:47.208Z,21.28
2023-10-11T10:40:26.099Z,21.22
2023-10-11T10:43:15.466Z,21.20
2023-10-11T10:45:42.467Z,21.19
2023-10-11T10:48:20.458Z,21.19
2023-10-11T10:50:51.885Z,21.18
2023-10-11T10:53:20.095Z,21.22
2023-10-11T10:55:46.833Z,21.26
2023-10-11T10:58:20.607Z,21.28
2023-10-11T11:00:56.112Z,21.33
2023-10-11T11:03:24.577Z,21.36
2023-10-11T11:06:02.681Z,21.37
2023-10-11T11:08:30.622Z,21.44
2023-10-11T11:11:23.607Z,21.45
2023-10-11T11:13:50.669Z,21.53
2023-10-11T11:16:23.285Z,21.60
2023-10-11T11:18:49.944Z,21.63
2023-10-11T11:21:26.693Z,21.67
2023-10-11T11:23:53.878Z,21.72
2023-10-11T11:29:09.606Z,21.83
2023-10-11T11:31:54.312Z,21.90
2023-10-11T11:34:38.439Z,21.97
2023-10-11T11:39:50.606Z,22.08
2023-10-11T11:42:20.462Z,22.16
2023-10-11T11:44:47.983Z,22.21
2023-10-11T11:47:25.077Z,22.35
2023-10-11T11:49:52.690Z,22.42
2023-10-11T11:52:19.317Z,22.50
2023-10-11T11:54:45.838Z,22.56
2023-10-11T11:57:12.540Z,22.61
2023-10-11T11:59:40.147Z,22.69
2023-10-11T12:02:17.587Z,22.75
2023-10-11T12:04:49.185Z,22.81
2023-10-11T12:07:16.037Z,22.90
2023-10-11T12:09:52.200Z,23.00
2023-10-11T12:12:28.481Z,23.04
2023-10-11T12:14:55.813Z,23.10
2023-10-11T12:17:22.485Z,23.19
2023-10-11T12:19:54.458Z,23.26
2023-10-11T12:22:23.563Z,23.32
2023-10-11T12:24:50.284Z,23.37
2023-10-11T12:27:17.441Z,23.46
2023-10-11T12:30:07.209Z,23.51
2023-10-11T12:32:35.235Z,23.59
2023-10-11T12:35:07.238Z,23.65
2023-10-11T12:37:36.831Z,23.68
2023-10-11T12:40:12.672Z,23.75
2023-10-11T12:42:39.329Z,23.81
2023-10-11T12:45:09.198Z,23.85
2023-10-11T12:47:36.162Z,23.91
2023-10-11T12:50:04.912Z,23.92
2023-10-11T12:52:34.245Z,23.93
2023-10-11T12:55:01.703Z,23.98
2023-10-11T12:57:29.371Z,24.05
2023-10-11T12:59:59.667Z,24.15
2023-10-11T13:02:34.913Z,24.16
2023-10-11T13:05:01.779Z,24.20
2023-10-11T13:07:28.414Z,24.20
2023-10-11T13:09:55.396Z,24.17
2023-10-11T13:12:23.463Z,24.17
2023-10-11T13:14:52.319Z,24.28
2023-10-11T13:17:18.840Z,24.37
2023-10-11T13:19:45.456Z,24.44
2023-10-11T13:22:13.960Z,24.43
2023-10-11T13:24:40.654Z,24.42
2023-10-11T13:27:08.329Z,24.42
2023-10-11T13:29:35.011Z,24.45
2023-10-11T13:32:01.636Z,24.53
2023-10-11T13:34:35.355Z,24.58
2023-10-11T13:37:04.616Z,24.64
2023-10-11T13:39:40.942Z,24.63
2023-10-11T13:42:15.789Z,24.66
2023-10-11T13:44:44.479Z,24.73
2023-10-11T13:47:11.133Z,24.74
2023-10-11T13:49:42.013Z,24.76
2023-10-11T13:52:08.797Z,24.80
2023-10-11T13:54:52.615Z,24.87
2023-10-11T13:57:19.482Z,24.92
2023-10-11T13:59:48.017Z,24.93
2023-10-11T14:02:19.995Z,24.86
2023-10-11T14:04:49.104Z,24.86
2023-10-11T14:07:34.981Z,24.94
2023-10-11T14:10:11.641Z,24.94
2023-10-11T14:12:40.107Z,24.90
2023-10-11T14:15:13.011Z,24.93
2023-10-11T14:17:40.034Z,24.95
2023-10-11T14:20:08.875Z,24.96
2023-10-11T14:22:35.810Z,24.94
2023-10-11T14:25:02.502Z,24.96
2023-10-11T14:27:31.138Z,24.96
2023-10-11T14:29:58.368Z,24.99
2023-10-11T14:32:25.114Z,24.98
2023-10-11T14:34:52.804Z,24.92
2023-10-11T14:37:20.607Z,24.89
2023-10-11T14:39:50.679Z,24.85
2023-10-11T14:42:17.614Z,24.84
2023-10-11T14:44:44.293Z,24.90
2023-10-11T14:47:11.951Z,24.89
2023-10-11T14:49:38.662Z,24.89
2023-10-11T14:52:09.106Z,24.86
2023-10-11T14:54:40.569Z,24.85
2023-10-11T14:57:08.579Z,24.88
2023-10-11T14:59:36.337Z,24.96
2023-10-11T15:02:06.278Z,24.97
2023-10-11T15:04:37.155Z,24.98
2023-10-11T15:07:07.480Z,24.92
2023-10-11T15:09:37.008Z,24.87
2023-10-11T15:12:04.318Z,24.81
2023-10-11T15:14:30.855Z,24.66
2023-10-11T15:16:59.516Z,24.54
2023-10-11T15:19:26.405Z,24.42
2023-10-11T15:21:53.749Z,24.33
2023-10-11T15:24:24.330Z,24.31
2023-10-11T15:26:51.937Z,24.33
2023-10-11T15:29:19.186Z,24.33
2023-10-11T15:31:45.807Z,24.29
2023-10-11T15:34:14.698Z,24.21
2023-10-11T15:36:42.241Z,24.12
2023-10-11T15:39:11.247Z,24.04
2023-10-11T15:41:38.108Z,23.96
2023-10-11T15:44:04.933Z,23.84
2023-10-11T15:46:31.575Z,23.71
2023-10-11T15:49:00.430Z,23.59
2023-10-11T15:51:27.963Z,23.47
2023-10-11T15:53:54.530Z,23.38
2023-10-11T15:56:21.349Z,23.24
2023-10-11T15:58:47.924Z,23.13
2023-10-11T16:01:15.701Z,22.98
2023-10-11T16:03:45.138Z,22.83
2023-10-11T16:06:13.130Z,22.67
2023-10-11T16:08:40.059Z,22.50
2023-10-11T16:11:11.566Z,22.37
2023-10-11T16:13:38.605Z,22.23
2023-10-11T16:16:08.463Z,22.09
2023-10-11T16:18:35.820Z,21.96
2023-10-11T16:21:04.423Z,21.84
2023-10-11T16:23:33.154Z,21.67
2023-10-11T16:26:01.184Z,21.52
2023-10-11T16:28:29.042Z,21.37
2023-10-11T16:30:59.849Z,21.28
2023-10-11T16:33:33.440Z,21.19
2023-10-11T16:36:02.386Z,21.10
2023-10-11T16:38:33.730Z,21.00
2023-10-11T16:41:01.304Z,20.91
2023-10-11T16:43:28.270Z,20.81
2023-10-11T16:45:54.877Z,20.73
2023-10-11T16:48:21.418Z,20.74
2023-10-11T16:50:49.697Z,20.74
2023-10-11T16:53:16.267Z,20.69
2023-10-11T16:55:43.354Z,20.63
2023-10-11T16:58:10.801Z,20.55
2023-10-11T17:00:38.271Z,20.49
2023-10-11T17:03:05.352Z,20.47
2023-10-11T17:05:35.285Z,20.56
2023-10-11T17:08:02.527Z,20.65
2023-10-11T17:10:29.106Z,20.61
2023-10-11T17:12:56.157Z,20.55
2023-10-11T17:15:25.444Z,20.45
2023-10-11T17:17:53.843Z,20.40
2023-10-11T17:20:22.361Z,20.41
2023-10-11T17:22:51.368Z,20.42
2023-10-11T17:25:22.312Z,20.34
2023-10-11T17:27:52.499Z,20.33
2023-10-11T17:30:20.447Z,20.41
2023-10-11T17:32:48.465Z,20.50
2023-10-11T17:35:16.454Z,20.53
2023-10-11T17:37:47.907Z,20.58
2023-10-11T17:40:19.089Z,20.71
2023-10-11T17:42:49.698Z,20.78
2023-10-11T17:45:18.429Z,20.79
2023-10-11T17:47:45.139Z,20.82
2023-10-11T17:50:14.714Z,20.87
2023-10-11T17:52:42.383Z,20.86
2023-10-11T17:55:09.723Z,20.81
2023-10-11T17:57:37.596Z,20.82
2023-10-11T18:00:08.411Z,20.89
2023-10-11T18:02:37.197Z,20.92
2023-10-11T18:05:08.583Z,20.90
2023-10-11T18:07:36.003Z,20.90
2023-10-11T18:10:06.552Z,20.96
2023-10-11T18:12:33.734Z,21.01
2023-10-11T18:15:01.519Z,21.06
2023-10-11T18:17:30.849Z,21.15
2023-10-11T18:19:58.155Z,21.10
2023-10-11T18:22:30.341Z,21.08
2023-10-11T18:24:57.457Z,21.01
2023-10-11T18:27:23.990Z,20.98
2023-10-11T18:29:50.648Z,20.92
2023-10-11T18:32:20.159Z,20.84
2023-10-11T18:34:50.118Z,20.74
2023-10-11T18:37:17.497Z,20.76
2023-10-11T18:39:45.741Z,20.87
2023-10-11T18:42:16.454Z,20.97
2023-10-11T18:44:43.113Z,21.12
2023-10-11T18:47:11.020Z,21.21
2023-10-11T18:49:38.675Z,21.19
2023-10-11T18:52:05.818Z,21.18
2023-10-11T18:54:32.420Z,21.16
2023-10-11T18:56:59.061Z,21.22
2023-10-11T18:59:26.065Z,21.32
2023-10-11T19:01:52.933Z,21.33
2023-10-11T19:04:22.282Z,21.40
2023-10-11T19:06:49.378Z,21.47
2023-10-11T19:09:16.033Z,21.50
2023-10-11T19:11:43.956Z,21.50
2023-10-11T19:14:10.556Z,21.52
2023-10-11T19:16:37.785Z,21.58
2023-10-11T19:19:04.385Z,21.64
2023-10-11T19:21:31.802Z,21.62
2023-10-11T19:23:58.326Z,21.59
2023-10-11T19:26:25.107Z,21.58
2023-10-11T19:28:53.003Z,21.52
2023-10-11T19:31:20.090Z,21.50
2023-10-11T19:33:46.712Z,21.46
2023-10-11T19:36:14.004Z,21.45
2023-10-11T19:38:41.036Z,21.42
2023-10-11T19:41:07.604Z,21.48
2023-10-11T19:43:36.497Z,21.48
2023-10-11T19:46:10.126Z,21.45
2023-10-11T19:48:36.764Z,21.49
2023-10-11T19:51:03.973Z,21.58
2023-10-11T19:53:30.700Z,21.59
2023-10-11T19:55:57.898Z,21.53
2023-10-11T19:58:25.474Z,21.57
2023-10-11T20:00:53.101Z,21.59
2023-10-11T20:03:19.674Z,21.55
2023-10-11T20:05:46.708Z,21.55
2023-10-11T20:08:16.687Z,21.58
2023-10-11T20:10:48.084Z,21.62
2023-10-11T20:13:14.699Z,21.60
2023-10-11T20:15:42.055Z,21.59
2023-10-11T20:18:09.346Z,21.60
2023-10-11T20:20:37.603Z,21.61
2023-10-11T20:23:08.075Z,21.59
2023-10-11T20:25:35.152Z,21.56
2023-10-11T20:28:01.611Z,21.56
2023-10-11T20:30:28.323Z,21.53
2023-10-11T20:32:57.314Z,21.52
2023-10-11T20:35:25.404Z,21.49
2023-10-11T20:37:53.755Z,21.48
2023-10-11T20:40:23.392Z,21.44
2023-10-11T20:42:54.467Z,21.49
2023-10-11T20:45:23.440Z,21.50
2023-10-11T20:47:54.553Z,21.48
2023-10-11T20:50:23.141Z,21.47
2023-10-11T20:52:51.433Z,21.41
2023-10-11T20:57:56.272Z,21.37
2023-10-11T21:00:23.790Z,21.36
2023-10-11T21:02:50.661Z,21.32
2023-10-11T21:05:17.370Z,21.31
2023-10-11T21:07:43.863Z,21.33
2023-10-11T21:10:13.611Z,21.35
2023-10-11T21:12:41.303Z,21.36
2023-10-11T21:15:13.812Z,21.34
2023-10-11T21:17:44.288Z,21.31
2023-10-11T21:20:12.458Z,21.27
2023-10-11T21:22:41.100Z,21.25
2023-10-11T21:25:15.198Z,21.27
2023-10-11T21:27:48.737Z,21.27
2023-10-11T21:30:19.987Z,21.28
2023-10-11T21:32:51.933Z,21.27
2023-10-11T21:35:22.679Z,21.25
2023-10-11T21:37:50.003Z,21.23
2023-10-11T21:40:17.868Z,21.21
2023-10-11T21:42:44.465Z,21.21
2023-10-11T21:45:15.231Z,21.24
2023-10-11T21:47:46.507Z,21.16
2023-10-11T21:50:14.000Z,21.15
2023-10-11T21:52:44.225Z,21.13
2023-10-11T21:55:15.079Z,21.06
2023-10-11T21:57:44.437Z,20.99
2023-10-11T22:00:16.886Z,20.95
2023-10-11T22:02:47.382Z,20.92
2023-10-11T22:05:15.039Z,20.88
2023-10-11T22:07:48.203Z,20.79
2023-10-11T22:10:16.452Z,20.75
2023-10-11T22:12:46.884Z,20.72
2023-10-11T22:15:14.355Z,20.64
2023-10-11T22:17:55.710Z,20.60
2023-10-11T22:20:25.823Z,20.57
2023-10-11T22:22:53.066Z,20.58
2023-10-11T22:25:22.639Z,20.63
2023-10-11T22:27:49.447Z,20.62
2023-10-11T22:30:24.245Z,20.62
2023-10-11T22:33:09.615Z,20.59
2023-10-11T22:35:37.464Z,20.60
2023-10-11T22:38:04.879Z,20.57
2023-10-11T22:40:32.694Z,20.53
2023-10-11T22:43:05.152Z,20.52
2023-10-11T22:45:41.058Z,20.52
2023-10-11T22:48:07.716Z,20.52
2023-10-11T22:50:34.920Z,20.50
2023-10-11T22:53:02.681Z,20.48
2023-10-11T22:55:32.668Z,20.46
2023-10-11T22:58:03.719Z,20.46
2023-10-11T23:00:34.068Z,20.45
2023-10-11T23:03:02.466Z,20.48
2023-10-11T23:05:32.727Z,20.45
2023-10-11T23:07:59.790Z,20.44
2023-10-11T23:10:27.515Z,20.43
2023-10-11T23:12:55.938Z,20.39
2023-10-11T23:15:34.991Z,20.39
2023-10-11T23:18:14.439Z,20.38
2023-10-11T23:20:46.426Z,20.36
2023-10-11T23:23:14.078Z,20.35
2023-10-11T23:25:50.567Z,20.30
2023-10-11T23:28:22.983Z,20.30
2023-10-11T23:30:52.692Z,20.28
2023-10-11T23:33:19.821Z,20.25
2023-10-11T23:35:46.597Z,20.20
2023-10-11T23:38:28.312Z,20.19
2023-10-11T23:40:56.263Z,20.18
2023-10-11T23:43:30.096Z,20.19
2023-10-11T23:45:57.986Z,20.20
2023-10-11T23:48:34.635Z,20.21
2023-10-11T23:51:06.373Z,20.25
2023-10-11T23:53:44.312Z,20.24
2023-10-11T23:56:21.672Z,20.22
2023-10-11T23:58:57.902Z,20.22
